Time;durP1;ratioP1;P1;durP2;ratioP2;P2;SDS_P1;SDS_P2;PMS_P1;PMS_P2;Temp;Humidity;BMP_temperature;BMP_pressure;BME280_temperature;BME280_humidity;BME280_pressure;Samples;Min_cycle;Max_cycle;Signal;HPM_P1;HPM_P2
2022/09/08 00:00:37;;;;;;;5.25;4.85;;;25.50;57.80;;;;;;5103154;28;20020;-61
2022/09/08 00:03:06;;;;;;;5.38;4.88;;;25.60;57.80;;;;;;5103714;28;20020;-62
2022/09/08 00:05:38;;;;;;;5.80;5.28;;;25.60;58.40;;;;;;5106550;28;20082;-62
2022/09/08 00:08:04;;;;;;;5.78;5.28;;;25.60;57.80;;;;;;5107002;28;20028;-62
2022/09/08 00:10:30;;;;;;;5.32;4.82;;;25.60;57.80;;;;;;5106690;28;20027;-62
2022/09/08 00:12:56;;;;;;;5.43;4.90;;;25.60;57.80;;;;;;5106663;28;20024;-63
2022/09/08 00:15:23;;;;;;;6.20;5.15;;;25.60;57.80;;;;;;5106511;28;20192;-62
2022/09/08 00:17:49;;;;;;;4.93;4.47;;;25.50;57.80;;;;;;5106820;28;20044;-60
2022/09/08 00:20:15;;;;;;;5.30;4.80;;;25.60;57.80;;;;;;5106445;28;20011;-61
2022/09/08 00:22:41;;;;;;;5.68;5.18;;;25.50;57.80;;;;;;5106372;28;20016;-61
2022/09/08 00:25:08;;;;;;;5.13;4.72;;;25.60;57.90;;;;;;5106424;28;20015;-62
2022/09/08 00:27:34;;;;;;;5.47;5.07;;;25.50;57.80;;;;;;5106357;28;20023;-61
2022/09/08 00:29:59;;;;;;;5.32;4.82;;;25.50;57.80;;;;;;5106286;28;20079;-61
2022/09/08 00:32:25;;;;;;;5.50;5.00;;;25.50;57.80;;;;;;5106480;28;20023;-61
2022/09/08 00:34:51;;;;;;;5.22;4.72;;;25.50;57.80;;;;;;5106191;28;20012;-62
2022/09/08 00:37:18;;;;;;;5.55;5.05;;;25.50;57.80;;;;;;5106055;28;20215;-61
2022/09/08 00:39:44;;;;;;;6.10;5.07;;;25.50;57.80;;;;;;5106144;28;20303;-61
2022/09/08 00:42:10;;;;;;;5.72;4.82;;;25.50;57.80;;;;;;5106057;28;20024;-61
2022/09/08 00:44:49;;;;;;;5.68;5.03;;;25.50;57.80;;;;;;5105999;28;20080;-62
2022/09/08 00:47:28;;;;;;;6.28;5.68;;;25.50;57.80;;;;;;5106232;28;20087;-61
2022/09/08 00:50:05;;;;;;;5.63;5.13;;;25.50;57.80;;;;;;5106201;28;20016;-62
2022/09/08 00:52:38;;;;;;;5.43;4.93;;;25.50;57.80;;;;;;5105920;28;20025;-63
2022/09/08 00:55:07;;;;;;;5.40;4.90;;;25.50;57.80;;;;;;5105710;28;20029;-63
2022/09/08 00:57:33;;;;;;;5.32;4.82;;;25.50;57.80;;;;;;5105761;28;20030;-62
2022/09/08 00:59:59;;;;;;;5.50;5.00;;;25.50;57.80;;;;;;5105692;28;20008;-62
2022/09/08 01:02:26;;;;;;;5.68;5.18;;;25.50;57.80;;;;;;5105667;28;20079;-62
2022/09/08 01:05:14;;;;;;;5.32;4.82;;;25.50;57.80;;;;;;5105587;28;20038;-62
2022/09/08 01:14:00;;;;;;;5.05;4.65;;;25.50;57.90;;;;;;5105478;28;20019;-61
2022/09/08 01:16:27;;;;;;;6.03;5.53;;;25.50;57.90;;;;;;5105371;28;20077;-62
2022/09/08 01:18:56;;;;;;;5.57;5.07;;;25.40;57.80;;;;;;5105344;28;20069;-61
2022/09/08 01:21:53;;;;;;;5.13;4.72;;;25.50;57.90;;;;;;5105291;28;20058;-62
2022/09/08 01:24:44;;;;;;;5.25;4.85;;;25.50;57.90;;;;;;5105600;28;20020;-62
2022/09/08 01:27:21;;;;;;;5.25;4.75;;;25.50;57.90;;;;;;5105210;28;20227;-62
2022/09/08 01:29:47;;;;;;;6.07;5.40;;;25.50;57.90;;;;;;5105178;28;20019;-62
2022/09/08 01:32:14;;;;;;;6.47;5.00;;;25.50;57.90;;;;;;5105305;28;20049;-63
2022/09/08 01:34:42;;;;;;;5.40;4.90;;;25.50;57.90;;;;;;5105032;28;20061;-62
2022/09/08 01:37:08;;;;;;;4.97;4.57;;;25.50;57.90;;;;;;5104938;28;20020;-62
2022/09/08 01:39:34;;;;;;;4.38;4.00;;;25.40;57.80;;;;;;5105179;28;20069;-62
2022/09/08 01:42:00;;;;;;;4.90;4.50;;;25.50;57.80;;;;;;5104894;28;20058;-62
2022/09/08 01:44:29;;;;;;;5.28;4.80;;;25.50;57.90;;;;;;5104862;28;20012;-62
2022/09/08 01:46:56;;;;;;;5.38;4.88;;;25.50;57.90;;;;;;5105321;28;20149;-62
2022/09/08 01:49:21;;;;;;;5.78;5.03;;;25.50;57.90;;;;;;5104732;28;20338;-63
2022/09/08 01:51:47;;;;;;;4.97;4.55;;;25.40;57.80;;;;;;5104693;28;20028;-62
2022/09/08 01:54:13;;;;;;;4.90;4.47;;;25.50;57.90;;;;;;5104674;28;20019;-61
2022/09/08 01:56:39;;;;;;;5.13;4.70;;;25.50;57.90;;;;;;5104543;28;20024;-61
2022/09/08 01:59:05;;;;;;;4.65;4.30;;;25.40;57.80;;;;;;5104560;28;20012;-62
2022/09/08 02:01:31;;;;;;;5.20;4.80;;;25.40;57.80;;;;;;5104542;28;20036;-61
2022/09/08 02:03:57;;;;;;;5.60;4.80;;;25.40;57.80;;;;;;5104496;28;20008;-61
2022/09/08 02:06:23;;;;;;;5.03;4.63;;;25.40;57.80;;;;;;5104279;28;20044;-61
2022/09/08 02:09:07;;;;;;;5.35;4.78;;;25.40;57.80;;;;;;5104430;28;20334;-61
2022/09/08 02:11:33;;;;;;;5.38;4.55;;;25.40;57.80;;;;;;5104402;28;20307;-62
2022/09/08 02:13:59;;;;;;;5.30;4.80;;;25.40;57.80;;;;;;5104355;28;20026;-62
2022/09/08 02:16:25;;;;;;;5.47;4.97;;;25.40;57.80;;;;;;5104190;28;20020;-61
2022/09/08 02:18:54;;;;;;;5.82;5.32;;;25.40;57.80;;;;;;5104207;28;20062;-62
2022/09/08 02:21:21;;;;;;;5.25;4.85;;;25.40;57.80;;;;;;5104179;28;20180;-60
2022/09/08 02:23:49;;;;;;;5.03;4.53;;;25.40;57.80;;;;;;5104698;28;20062;-63
2022/09/08 02:26:34;;;;;;;5.47;4.97;;;25.40;57.80;;;;;;5103710;28;20020;-63
2022/09/08 02:29:00;;;;;;;5.55;5.05;;;25.40;57.80;;;;;;5104068;28;20061;-61
2022/09/08 02:31:27;;;;;;;4.82;4.40;;;25.40;57.80;;;;;;5104033;28;20215;-63
2022/09/08 02:33:53;;;;;;;5.03;4.53;;;25.40;57.80;;;;;;5104304;28;20034;-62
2022/09/08 02:36:19;;;;;;;5.30;4.80;;;25.40;57.80;;;;;;5103880;28;20192;-62
2022/09/08 02:38:55;;;;;;;4.90;4.50;;;25.40;57.80;;;;;;5103964;28;20038;-62
2022/09/08 02:41:27;;;;;;;4.75;4.35;;;25.40;57.80;;;;;;5103907;28;20016;-61
2022/09/08 02:43:53;;;;;;;5.18;4.68;;;25.40;57.80;;;;;;5103890;28;20316;-62
2022/09/08 02:46:19;;;;;;;5.10;4.70;;;25.40;57.80;;;;;;5103833;28;20323;-62
2022/09/08 02:48:45;;;;;;;5.05;4.60;;;25.40;57.80;;;;;;5103798;28;20023;-61
2022/09/08 02:51:17;;;;;;;4.85;4.45;;;25.40;57.80;;;;;;5103735;28;20027;-62
2022/09/08 02:53:43;;;;;;;4.65;4.25;;;25.40;57.80;;;;;;5104026;28;20250;-62
2022/09/08 02:56:09;;;;;;;5.15;4.75;;;25.40;57.90;;;;;;5103626;28;20312;-62
2022/09/08 02:58:36;;;;;;;6.53;4.80;;;25.40;57.80;;;;;;5103693;28;20054;-62
2022/09/08 03:01:03;;;;;;;4.85;4.45;;;25.40;57.80;;;;;;5103619;28;20016;-62
2022/09/08 03:03:29;;;;;;;5.00;4.50;;;25.40;57.90;;;;;;5103594;28;20014;-62
2022/09/08 03:05:55;;;;;;;5.55;5.05;;;25.40;57.80;;;;;;5103430;28;20039;-63
2022/09/08 03:08:21;;;;;;;5.20;4.70;;;25.40;57.90;;;;;;5103624;28;20042;-63
2022/09/08 03:10:50;;;;;;;5.85;5.28;;;25.40;57.90;;;;;;5103550;28;20023;-64
2022/09/08 03:13:17;;;;;;;4.90;4.50;;;25.40;57.90;;;;;;5103555;28;20024;-62
2022/09/08 03:15:43;;;;;;;4.80;4.30;;;25.40;57.90;;;;;;5103471;28;20263;-61
2022/09/08 03:18:10;;;;;;;4.88;4.47;;;25.40;57.90;;;;;;5103481;28;20208;-61
2022/09/08 03:20:37;;;;;;;4.65;4.25;;;25.40;57.90;;;;;;5103493;28;20023;-61
2022/09/08 03:23:04;;;;;;;5.03;4.53;;;25.40;57.90;;;;;;5103478;28;20016;-61
2022/09/08 03:25:30;;;;;;;4.90;4.50;;;25.30;57.80;;;;;;5103443;28;20023;-61
2022/09/08 03:27:56;;;;;;;4.75;4.35;;;25.40;57.90;;;;;;5103373;28;20227;-62
2022/09/08 03:30:22;;;;;;;5.28;4.78;;;25.40;57.90;;;;;;5103417;28;20039;-62
2022/09/08 03:32:48;;;;;;;5.18;4.70;;;25.40;57.90;;;;;;5103362;28;20043;-62
2022/09/08 03:35:15;;;;;;;5.20;4.70;;;25.40;57.90;;;;;;5103273;28;20027;-62
2022/09/08 03:37:42;;;;;;;5.23;4.80;;;25.40;57.90;;;;;;5103487;28;20039;-62
2022/09/08 03:40:11;;;;;;;5.38;4.85;;;25.40;57.90;;;;;;5107249;28;20274;-62
2022/09/08 03:42:39;;;;;;;5.15;4.65;;;25.40;58.00;;;;;;5107177;28;20042;-62
2022/09/08 03:45:08;;;;;;;5.25;4.82;;;25.40;57.90;;;;;;5107140;28;20058;-61
2022/09/08 03:47:34;;;;;;;4.72;4.30;;;25.40;57.90;;;;;;5107155;28;20055;-63
2022/09/08 03:50:00;;;;;;;5.13;4.43;;;25.30;57.90;;;;;;5107103;28;20027;-62
2022/09/08 03:52:26;;;;;;;4.97;4.57;;;25.30;57.90;;;;;;5107022;28;20012;-62
2022/09/08 03:54:53;;;;;;;4.28;3.97;;;25.30;57.90;;;;;;5107004;28;20023;-62
2022/09/08 03:57:21;;;;;;;4.35;3.97;;;25.40;57.90;;;;;;5106875;28;20035;-62
2022/09/08 03:59:49;;;;;;;5.72;4.40;;;25.30;57.90;;;;;;5107126;28;20202;-62
2022/09/08 04:02:15;;;;;;;4.72;4.32;;;25.30;57.80;;;;;;5106909;28;20023;-61
2022/09/08 04:04:42;;;;;;;5.10;4.60;;;25.30;57.90;;;;;;5106843;28;20024;-62
2022/09/08 04:07:09;;;;;;;5.00;4.53;;;25.30;57.90;;;;;;5106600;28;20354;-62
2022/09/08 04:09:36;;;;;;;5.10;4.60;;;25.30;57.90;;;;;;5106682;28;20031;-61
2022/09/08 04:12:02;;;;;;;4.57;4.18;;;25.30;57.90;;;;;;5106616;28;20312;-62
2022/09/08 04:14:28;;;;;;;5.18;4.68;;;25.30;57.90;;;;;;5106655;28;20208;-62
2022/09/08 04:16:54;;;;;;;4.57;4.07;;;25.30;57.90;;;;;;5106504;28;20020;-62
2022/09/08 04:19:20;;;;;;;5.10;4.70;;;25.30;57.90;;;;;;5106552;28;20239;-62
2022/09/08 04:21:45;;;;;;;4.93;4.43;;;25.30;57.90;;;;;;5106479;28;20079;-61
2022/09/08 04:24:11;;;;;;;5.00;4.57;;;25.30;57.90;;;;;;5106734;28;20061;-61
2022/09/08 04:26:37;;;;;;;5.13;4.68;;;25.30;57.90;;;;;;5106399;28;20012;-62
2022/09/08 04:29:03;;;;;;;4.68;4.28;;;25.30;57.80;;;;;;5106338;28;20024;-61
2022/09/08 04:31:29;;;;;;;4.75;4.35;;;25.30;57.90;;;;;;5106278;28;20095;-62
2022/09/08 04:33:56;;;;;;;4.95;4.55;;;25.30;57.90;;;;;;5106507;28;20048;-63
2022/09/08 04:36:22;;;;;;;4.68;4.28;;;25.30;57.90;;;;;;5088059;28;20095;-62
2022/09/08 04:38:49;;;;;;;4.93;4.53;;;25.30;57.90;;;;;;5106122;28;20058;-61
2022/09/08 04:41:17;;;;;;;5.32;4.82;;;25.30;57.80;;;;;;5106106;28;20036;-62
2022/09/08 04:43:43;;;;;;;4.90;4.43;;;25.30;57.80;;;;;;5106348;28;20047;-62
2022/09/08 04:46:13;;;;;;;5.03;4.63;;;25.30;57.90;;;;;;5106027;28;20038;-62
2022/09/08 04:48:41;;;;;;;4.88;4.47;;;25.30;57.80;;;;;;5105603;28;20075;-61
2022/09/08 04:51:08;;;;;;;4.82;4.43;;;25.40;57.90;;;;;;5105899;28;20019;-60
2022/09/08 04:53:36;;;;;;;4.53;4.13;;;25.30;57.80;;;;;;5105871;28;20193;-61
2022/09/08 04:56:03;;;;;;;4.82;4.43;;;25.30;57.90;;;;;;5105785;28;20016;-61
2022/09/08 04:58:34;;;;;;;4.93;4.53;;;25.30;57.80;;;;;;5106057;28;20020;-62
2022/09/08 05:01:09;;;;;;;4.40;4.10;;;25.30;57.80;;;;;;5105717;28;20211;-60
2022/09/08 05:03:36;;;;;;;5.30;4.78;;;25.30;57.80;;;;;;5106019;28;20019;-62
2022/09/08 05:06:04;;;;;;;4.43;4.10;;;25.30;57.80;;;;;;5105390;28;20036;-62
2022/09/08 05:08:30;;;;;;;4.50;4.10;;;25.30;57.80;;;;;;5105612;28;20058;-62
2022/09/08 05:10:56;;;;;;;4.90;4.50;;;25.30;57.80;;;;;;5105527;28;20043;-62
2022/09/08 05:13:22;;;;;;;5.18;4.78;;;25.30;57.80;;;;;;5105500;28;20041;-62
2022/09/08 05:15:48;;;;;;;4.55;4.15;;;25.30;57.80;;;;;;5105348;28;20028;-62
2022/09/08 05:18:13;;;;;;;4.18;3.88;;;25.30;57.80;;;;;;5105401;28;20039;-62
2022/09/08 05:20:39;;;;;;;5.10;4.60;;;25.30;57.80;;;;;;5105339;28;20373;-62
2022/09/08 05:23:05;;;;;;;5.03;4.53;;;25.30;57.80;;;;;;5105280;28;20023;-61
2022/09/08 05:25:31;;;;;;;4.07;3.78;;;25.30;57.80;;;;;;5105218;28;20019;-61
2022/09/08 05:27:56;;;;;;;5.40;4.90;;;25.30;57.80;;;;;;5105194;28;20075;-61
2022/09/08 05:30:22;;;;;;;5.10;4.70;;;25.30;57.80;;;;;;5105163;28;20027;-63
2022/09/08 05:32:48;;;;;;;4.88;4.43;;;25.30;57.80;;;;;;5105068;28;20313;-62
2022/09/08 05:35:14;;;;;;;4.38;4.05;;;25.30;57.80;;;;;;5105015;28;20295;-63
2022/09/08 05:37:40;;;;;;;4.85;4.45;;;25.30;57.80;;;;;;5105019;28;20012;-62
2022/09/08 05:40:06;;;;;;;5.03;4.63;;;25.30;57.80;;;;;;5104956;28;20059;-63
2022/09/08 05:42:32;;;;;;;4.38;3.97;;;25.30;57.80;;;;;;5104938;28;20169;-62
2022/09/08 05:44:58;;;;;;;4.63;4.22;;;25.30;57.80;;;;;;5104891;28;20176;-62
2022/09/08 05:47:24;;;;;;;5.07;4.68;;;25.30;57.80;;;;;;5104879;28;20243;-63
2022/09/08 05:49:50;;;;;;;5.20;4.80;;;25.30;57.80;;;;;;5104796;28;20288;-62
2022/09/08 05:52:16;;;;;;;5.05;4.55;;;25.30;57.80;;;;;;5104736;28;20012;-63
2022/09/08 05:54:42;;;;;;;4.05;3.75;;;25.30;57.80;;;;;;5104690;28;20337;-62
2022/09/08 05:57:07;;;;;;;5.07;4.57;;;25.30;57.80;;;;;;5104546;28;20312;-62
2022/09/08 05:59:34;;;;;;;4.82;4.43;;;25.30;57.80;;;;;;5086593;28;20030;-63
2022/09/08 06:02:00;;;;;;;5.00;4.60;;;25.30;57.80;;;;;;5103884;28;20035;-63
2022/09/08 06:04:25;;;;;;;5.00;4.55;;;25.30;57.70;;;;;;5104519;28;20327;-62
2022/09/08 06:06:52;;;;;;;4.95;4.50;;;25.30;57.70;;;;;;5104260;28;20047;-63
2022/09/08 06:09:18;;;;;;;4.35;4.05;;;25.30;57.70;;;;;;5104440;28;20028;-62
2022/09/08 06:11:44;;;;;;;5.43;4.88;;;25.30;57.70;;;;;;5104381;28;20043;-62
2022/09/08 06:14:10;;;;;;;5.10;4.70;;;25.30;57.70;;;;;;5104344;28;20024;-62
2022/09/08 06:16:36;;;;;;;4.88;4.47;;;25.30;57.70;;;;;;5104221;28;20020;-62
2022/09/08 06:19:02;;;;;;;4.78;4.38;;;25.30;57.60;;;;;;5104249;28;20023;-63
2022/09/08 06:21:31;;;;;;;4.93;4.53;;;25.40;57.70;;;;;;5104208;28;20079;-62
2022/09/08 06:24:00;;;;;;;4.95;4.55;;;25.40;57.70;;;;;;5104182;28;20016;-62
2022/09/08 06:26:28;;;;;;;4.30;3.95;;;25.40;57.70;;;;;;5104068;28;20012;-63
2022/09/08 06:29:14;;;;;;;4.93;4.53;;;25.40;57.70;;;;;;5104064;28;20050;-61
2022/09/08 06:31:48;;;;;;;4.88;4.47;;;25.40;57.70;;;;;;5104113;28;20027;-62
2022/09/08 06:34:21;;;;;;;4.85;4.45;;;25.40;57.70;;;;;;5085955;28;20215;-62
2022/09/08 06:36:54;;;;;;;5.10;4.28;;;25.30;57.60;;;;;;5103906;28;20061;-63
2022/09/08 06:39:25;;;;;;;4.80;4.43;;;25.40;57.70;;;;;;5103952;28;20299;-62
2022/09/08 06:41:59;;;;;;;5.10;4.70;;;25.40;57.60;;;;;;5104231;28;20083;-62
2022/09/08 06:44:29;;;;;;;5.10;4.70;;;25.30;57.50;;;;;;5103887;28;20299;-62
2022/09/08 06:46:57;;;;;;;4.25;3.95;;;25.40;57.60;;;;;;5103866;28;20023;-63
2022/09/08 06:49:30;;;;;;;4.45;4.13;;;25.40;57.60;;;;;;5103815;28;20261;-62
2022/09/08 06:52:20;;;;;;;4.85;4.38;;;25.40;57.60;;;;;;5103725;28;20028;-62
2022/09/08 06:55:00;;;;;;;4.50;4.10;;;25.40;57.60;;;;;;5103732;28;20065;-62
2022/09/08 06:57:50;;;;;;;4.85;4.45;;;25.40;57.50;;;;;;5103620;28;20057;-60
2022/09/08 07:00:21;;;;;;;4.30;4.00;;;25.40;57.50;;;;;;5103695;28;20020;-62
2022/09/08 07:03:08;;;;;;;4.63;4.22;;;25.40;57.50;;;;;;5103678;28;20063;-62
2022/09/08 07:05:43;;;;;;;4.30;3.95;;;25.40;57.50;;;;;;5103665;28;20016;-62
2022/09/08 07:08:36;;;;;;;5.35;4.85;;;25.40;57.50;;;;;;5085555;28;20097;-62
2022/09/08 07:11:23;;;;;;;4.57;4.18;;;25.40;57.50;;;;;;5103615;28;20024;-61
2022/09/08 07:14:04;;;;;;;4.78;4.35;;;25.40;57.50;;;;;;5107422;28;20323;-61
2022/09/08 07:16:51;;;;;;;5.38;4.90;;;25.40;57.50;;;;;;5107728;28;20254;-62
2022/09/08 07:19:53;;;;;;;5.30;4.90;;;25.40;57.40;;;;;;5107705;28;20012;-61
2022/09/08 07:22:24;;;;;;;4.68;4.28;;;25.40;57.40;;;;;;5107650;28;20048;-61
2022/09/08 07:24:54;;;;;;;4.70;4.30;;;25.40;57.40;;;;;;5107581;28;20046;-62
2022/09/08 07:27:21;;;;;;;4.57;4.18;;;25.40;58.00;;;;;;5107568;28;20204;-63
2022/09/08 07:29:50;;;;;;;4.72;4.32;;;25.40;57.40;;;;;;5107493;28;20338;-62
2022/09/08 07:32:28;;;;;;;4.78;4.38;;;25.40;57.40;;;;;;5107478;28;20084;-62
2022/09/08 07:35:18;;;;;;;4.30;4.00;;;25.40;57.50;;;;;;5107427;28;20208;-62
2022/09/08 07:37:53;;;;;;;4.35;3.97;;;25.40;57.40;;;;;;5106766;28;20083;-63
2022/09/08 07:40:38;;;;;;;4.53;4.13;;;25.40;57.40;;;;;;5107349;28;20024;-62
2022/09/08 07:43:12;;;;;;;4.18;3.88;;;25.40;57.40;;;;;;5107327;28;20350;-62
2022/09/08 07:46:08;;;;;;;4.97;4.57;;;25.40;57.40;;;;;;5107200;28;20027;-62
2022/09/08 07:48:55;;;;;;;4.32;3.90;;;25.40;57.40;;;;;;5055786;28;20031;-61
2022/09/08 07:51:27;;;;;;;4.65;4.25;;;25.50;57.50;;;;;;5107106;28;20080;-62
2022/09/08 07:54:20;;;;;;;4.90;4.50;;;25.50;57.40;;;;;;5107092;28;20035;-62
2022/09/08 07:56:58;;;;;;;4.80;4.40;;;25.50;57.40;;;;;;5106966;28;20027;-62
2022/09/08 07:59:36;;;;;;;4.80;4.40;;;25.40;57.40;;;;;;5107002;28;20023;-63
2022/09/08 08:02:34;;;;;;;4.45;4.05;;;25.50;57.50;;;;;;5106971;28;20020;-63
2022/09/08 08:05:17;;;;;;;4.57;4.18;;;25.50;57.40;;;;;;5099955;28;20223;-62
2022/09/08 08:07:59;;;;;;;4.63;4.22;;;25.40;57.40;;;;;;5107092;28;20246;-61
2022/09/08 08:10:30;;;;;;;4.60;4.20;;;25.50;57.40;;;;;;5106741;28;20311;-63
2022/09/08 08:13:26;;;;;;;4.65;4.25;;;25.50;57.40;;;;;;5106669;28;20019;-61
2022/09/08 08:15:54;;;;;;;4.53;4.22;;;25.50;57.40;;;;;;5106552;28;20026;-62
2022/09/08 08:18:52;;;;;;;4.72;4.25;;;25.50;57.40;;;;;;5106605;28;20024;-60
2022/09/08 08:21:18;;;;;;;;;;;25.50;57.40;;;;;;5085512;28;20031;-62
2022/09/08 08:23:47;;;;;;;5.25;4.85;;;25.50;57.40;;;;;;5105705;28;20147;-62
2022/09/08 08:26:34;;;;;;;4.53;4.13;;;25.50;57.50;;;;;;5106448;28;20226;-61
2022/09/08 08:29:30;;;;;;;4.70;4.30;;;25.50;57.40;;;;;;5106387;28;20023;-62
2022/09/08 08:31:56;;;;;;;4.82;4.43;;;25.50;57.40;;;;;;5106301;28;20019;-62
2022/09/08 08:34:32;;;;;;;4.72;4.32;;;25.50;57.40;;;;;;5106268;28;20062;-61
2022/09/08 08:37:03;;;;;;;4.90;4.50;;;25.50;57.40;;;;;;5106096;28;20016;-62
2022/09/08 08:39:33;;;;;;;4.18;3.78;;;25.50;57.30;;;;;;5106120;28;20015;-62
2022/09/08 08:42:09;;;;;;;5.18;4.70;;;25.60;57.40;;;;;;5106118;28;20019;-61
2022/09/08 08:44:56;;;;;;;4.38;4.00;;;25.50;57.30;;;;;;5106681;28;20032;-62
2022/09/08 08:47:54;;;;;;;4.97;4.57;;;25.50;57.30;;;;;;5106018;28;20062;-62
2022/09/08 08:50:22;;;;;;;5.07;4.57;;;25.60;57.30;;;;;;5067203;28;20324;-61
2022/09/08 08:53:06;;;;;;;5.03;4.63;;;25.60;57.30;;;;;;5105852;28;20303;-61
2022/09/08 08:55:50;;;;;;;4.65;4.25;;;25.60;57.30;;;;;;5105779;28;20012;-61
2022/09/08 08:58:37;;;;;;;4.57;4.18;;;25.60;57.30;;;;;;5105797;28;20079;-62
2022/09/08 09:01:48;;;;;;;4.80;4.38;;;25.60;57.30;;;;;;5105765;28;20016;-62
2022/09/08 09:04:32;;;;;;;4.82;4.32;;;25.60;57.30;;;;;;5100705;28;20026;-62
2022/09/08 09:07:09;;;;;;;4.40;4.00;;;25.60;57.30;;;;;;5105441;28;20102;-61
2022/09/08 09:10:00;;;;;;;5.05;4.65;;;25.60;57.30;;;;;;5105545;28;20091;-62
2022/09/08 09:12:47;;;;;;;4.90;4.50;;;25.60;57.20;;;;;;5105531;28;20101;-62
2022/09/08 09:15:28;;;;;;;4.78;4.35;;;25.70;57.20;;;;;;5105455;28;20039;-62
2022/09/08 09:18:26;;;;;;;4.55;4.15;;;25.70;57.20;;;;;;5087382;28;20024;-62
2022/09/08 09:20:57;;;;;;;4.50;4.10;;;25.60;57.10;;;;;;5105364;28;20058;-62
2022/09/08 09:23:36;;;;;;;4.88;4.38;;;25.70;57.20;;;;;;5105280;28;20379;-62
2022/09/08 09:26:12;;;;;;;5.72;4.30;;;25.70;57.80;;;;;;5105297;28;20334;-62
2022/09/08 09:29:14;;;;;;;4.97;4.57;;;25.70;57.20;;;;;;5105259;28;20027;-62
2022/09/08 09:32:09;;;;;;;4.38;3.97;;;25.70;57.20;;;;;;5105197;28;20207;-61
2022/09/08 09:35:06;;;;;;;5.07;4.68;;;25.70;57.20;;;;;;5105141;28;20278;-62
2022/09/08 09:37:41;;;;;;;4.43;3.92;;;25.70;57.20;;;;;;5104443;28;20027;-62
2022/09/08 09:40:25;;;;;;;4.85;4.45;;;25.70;57.30;;;;;;5104938;28;20049;-60
2022/09/08 09:43:06;;;;;;;4.90;4.50;;;25.70;57.20;;;;;;5104938;28;20319;-62
2022/09/08 09:45:35;;;;;;;4.68;4.28;;;25.70;57.20;;;;;;5105106;28;20095;-61
2022/09/08 09:48:33;;;;;;;4.85;4.45;;;25.70;57.20;;;;;;5104736;28;20189;-62
2022/09/08 09:51:30;;;;;;;4.88;4.47;;;25.70;57.10;;;;;;5104764;28;20050;-61
2022/09/08 09:54:35;;;;;;;4.40;4.00;;;25.80;57.20;;;;;;5084760;28;20028;-61
2022/09/08 09:57:25;;;;;;;4.38;3.97;;;25.70;57.10;;;;;;5066719;28;20257;-62
2022/09/08 10:00:12;;;;;;;4.50;4.10;;;25.80;57.20;;;;;;5104582;28;20113;-61
2022/09/08 10:02:56;;;;;;;4.47;4.15;;;25.80;57.20;;;;;;5104580;28;20020;-62
2022/09/08 10:06:11;;;;;;;5.95;4.40;;;25.70;57.10;;;;;;5104798;28;20039;-62
2022/09/08 10:08:55;;;;;;;4.35;3.95;;;25.70;57.10;;;;;;5104736;28;20036;-62
2022/09/08 10:11:31;;;;;;;5.15;4.65;;;25.80;57.20;;;;;;5104410;28;20038;-62
2022/09/08 10:14:16;;;;;;;4.28;3.92;;;25.80;57.20;;;;;;5104652;28;20086;-62
2022/09/08 10:17:06;;;;;;;4.47;4.07;;;25.80;57.20;;;;;;5104244;28;20043;-62
2022/09/08 10:19:40;;;;;;;4.50;4.15;;;25.80;57.30;;;;;;5104305;28;20012;-63
2022/09/08 10:22:47;;;;;;;4.07;3.78;;;25.80;57.30;;;;;;5104217;28;20077;-63
2022/09/08 10:25:46;;;;;;;4.00;3.70;;;25.80;57.30;;;;;;5056980;28;20095;-62
2022/09/08 10:28:35;;;;;;;4.32;3.92;;;25.70;57.30;;;;;;5104094;28;20043;-62
2022/09/08 10:31:54;;;;;;;4.75;4.25;;;25.80;57.30;;;;;;5104341;28;20027;-61
2022/09/08 10:34:22;;;;;;;5.25;4.75;;;25.80;57.20;;;;;;5002557;28;20048;-61
2022/09/08 10:37:38;;;;;;;3.90;3.60;;;25.80;57.20;;;;;;5097419;28;20207;-62
2022/09/08 10:40:13;;;;;;;4.78;4.38;;;25.90;57.20;;;;;;5061263;28;20028;-62
2022/09/08 10:42:49;;;;;;;4.07;3.78;;;25.80;57.10;;;;;;5104187;28;20277;-62
2022/09/08 10:45:17;;;;;;;4.05;3.75;;;25.80;57.10;;;;;;5085810;28;20035;-61
2022/09/08 10:48:03;;;;;;;4.10;3.80;;;25.80;57.20;;;;;;5103477;28;20060;-61
2022/09/08 10:50:30;;;;;;;4.50;4.10;;;25.80;57.10;;;;;;5052732;28;20035;-62
2022/09/08 10:53:23;;;;;;;4.53;4.13;;;25.80;57.10;;;;;;5103773;28;20459;-61
2022/09/08 10:56:14;;;;;;;4.03;3.72;;;25.90;57.10;;;;;;5103656;28;20312;-62
2022/09/08 10:59:17;;;;;;;4.30;4.00;;;25.80;57.10;;;;;;5103731;28;20023;-62
2022/09/08 11:02:05;;;;;;;4.07;3.78;;;25.90;57.10;;;;;;5103644;28;20042;-62
2022/09/08 11:05:05;;;;;;;4.32;3.92;;;25.90;57.10;;;;;;5103694;28;20079;-61
2022/09/08 11:08:06;;;;;;;4.20;3.88;;;25.90;57.00;;;;;;5102994;28;20320;-61
2022/09/08 11:10:55;;;;;;;4.35;3.95;;;25.90;57.00;;;;;;5099039;28;20048;-62
2022/09/08 11:13:33;;;;;;;3.95;3.65;;;25.90;57.00;;;;;;5103607;28;20024;-63
2022/09/08 11:16:29;;;;;;;4.10;3.80;;;25.90;57.00;;;;;;5103503;28;20054;-62
2022/09/08 11:19:16;;;;;;;4.20;3.90;;;26.00;57.00;;;;;;5103530;28;20043;-62
2022/09/08 11:21:56;;;;;;;4.00;3.70;;;26.00;57.00;;;;;;5103538;28;20073;-63
2022/09/08 11:24:40;;;;;;;4.05;3.75;;;26.00;57.00;;;;;;5103521;28;20075;-62
2022/09/08 11:27:34;;;;;;;4.50;4.20;;;26.00;57.00;;;;;;5103511;28;20182;-62
2022/09/08 11:30:03;;;;;;;3.45;3.17;;;26.00;56.90;;;;;;5103461;28;20027;-62
2022/09/08 11:32:55;;;;;;;4.53;4.13;;;26.00;56.90;;;;;;5103622;28;20020;-63
2022/09/08 11:35:30;;;;;;;4.55;4.10;;;26.10;56.90;;;;;;5103423;28;20311;-62
2022/09/08 11:38:29;;;;;;;3.70;3.40;;;26.10;56.90;;;;;;5103386;28;20020;-62
2022/09/08 11:41:00;;;;;;;4.05;3.75;;;26.10;56.80;;;;;;5103337;28;20012;-62
2022/09/08 11:43:35;;;;;;;4.13;3.83;;;26.10;56.80;;;;;;5103364;28;20174;-63
2022/09/08 11:46:20;;;;;;;4.18;3.88;;;26.10;56.80;;;;;;5103329;28;20020;-62
2022/09/08 11:49:16;;;;;;;4.68;4.28;;;26.10;56.80;;;;;;5103277;28;20022;-62
2022/09/08 11:51:45;;;;;;;4.57;4.18;;;26.10;56.80;;;;;;5103271;28;20020;-62
2022/09/08 11:54:19;;;;;;;4.53;4.15;;;26.10;56.80;;;;;;5103209;28;20083;-62
2022/09/08 11:57:10;;;;;;;3.83;3.53;;;26.20;56.80;;;;;;5103417;28;20195;-61
2022/09/08 11:59:53;;;;;;;4.15;3.85;;;26.20;56.80;;;;;;5104695;28;20012;-62
2022/09/08 12:02:30;;;;;;;3.85;3.55;;;26.20;56.80;;;;;;5106925;28;20012;-62
2022/09/08 12:05:11;;;;;;;4.15;3.85;;;26.20;56.80;;;;;;5106904;28;20027;-62
2022/09/08 12:08:18;;;;;;;4.15;3.85;;;26.20;56.80;;;;;;5106771;28;20319;-62
2022/09/08 12:11:02;;;;;;;4.87;4.47;;;26.20;56.70;;;;;;5106830;28;20031;-63
2022/09/08 12:14:05;;;;;;;3.67;3.38;;;26.20;56.80;;;;;;5106758;28;20211;-63
2022/09/08 12:17:09;;;;;;;4.13;3.83;;;26.20;56.80;;;;;;5106608;28;20024;-62
2022/09/08 12:20:06;;;;;;;4.05;3.75;;;26.20;56.80;;;;;;5004963;28;20229;-62
2022/09/08 12:22:51;;;;;;;4.13;3.83;;;26.20;56.80;;;;;;5106803;28;20207;-62
2022/09/08 12:25:38;;;;;;;4.65;4.25;;;26.20;56.90;;;;;;5106530;28;20020;-61
2022/09/08 12:28:18;;;;;;;4.15;3.80;;;26.20;56.90;;;;;;5106471;28;20016;-63
2022/09/08 12:31:05;;;;;;;3.97;3.67;;;26.20;56.90;;;;;;5106430;28;20024;-62
2022/09/08 12:34:01;;;;;;;4.38;4.07;;;26.30;56.90;;;;;;5106352;28;20079;-62
2022/09/08 12:36:49;;;;;;;4.18;3.78;;;26.30;56.80;;;;;;5106193;28;20221;-62
2022/09/08 12:39:30;;;;;;;4.22;3.92;;;26.30;56.70;;;;;;5106505;28;20020;-62
2022/09/08 12:42:17;;;;;;;4.70;4.30;;;26.30;56.60;;;;;;5106199;28;20043;-62
2022/09/08 12:45:06;;;;;;;4.28;3.88;;;26.30;56.70;;;;;;5106155;28;20185;-62
2022/09/08 12:47:51;;;;;;;5.03;4.20;;;26.30;56.80;;;;;;5055128;28;20081;-63
2022/09/08 12:51:00;;;;;;;4.15;3.85;;;26.30;56.90;;;;;;5105998;28;20012;-62
2022/09/08 12:53:41;;;;;;;4.13;3.83;;;26.20;56.90;;;;;;5105948;28;20200;-63
2022/09/08 12:56:19;;;;;;;3.78;3.47;;;26.20;57.10;;;;;;5105848;28;20022;-62
2022/09/08 12:59:00;;;;;;;;;;;26.10;57.10;;;;;;5106555;28;20016;-62
2022/09/08 13:01:45;;;;;;;4.30;3.90;;;26.10;57.10;;;;;;5105846;28;19900;-62
2022/09/08 13:04:33;;;;;;;4.10;3.80;;;26.10;57.20;;;;;;5105711;28;20330;-62
2022/09/08 13:06:58;;;;;;;;;;;26.20;57.20;;;;;;5105918;28;20048;-61
2022/09/08 13:09:32;;;;;;;3.90;3.60;;;26.10;57.20;;;;;;5105621;28;20073;-62
2022/09/08 13:12:27;;;;;;;3.90;3.60;;;26.10;57.20;;;;;;5105556;28;20016;-62
2022/09/08 13:15:04;;;;;;;3.72;3.42;;;26.10;57.10;;;;;;5105580;28;20016;-63
2022/09/08 13:17:54;;;;;;;5.15;3.90;;;26.10;57.20;;;;;;5105501;28;20035;-63
2022/09/08 13:21:09;;;;;;;3.65;3.35;;;26.10;57.20;;;;;;5105457;28;20079;-62
2022/09/08 13:23:47;;;;;;;4.13;3.83;;;26.20;57.30;;;;;;5003766;28;20213;-62
2022/09/08 13:26:30;;;;;;;4.13;3.83;;;26.10;57.30;;;;;;5003786;28;20222;-61
2022/09/08 13:28:56;;;;;;;3.92;3.63;;;26.10;57.30;;;;;;5079411;28;20032;-61
2022/09/08 13:31:22;;;;;;;3.97;3.67;;;26.10;57.40;;;;;;5105236;28;20079;-61
2022/09/08 13:34:15;;;;;;;4.13;3.83;;;26.00;57.40;;;;;;5105166;28;20024;-62
2022/09/08 13:37:00;;;;;;;3.88;3.58;;;26.00;57.50;;;;;;5105076;28;20020;-62
2022/09/08 13:39:49;;;;;;;4.55;4.15;;;26.00;57.60;;;;;;5105130;28;20016;-62